Terminal Aerodrome Forecast
Issued by NWS Upton, NY

Home | Current Version | Previous Version | Text Only | Print | Product List | Glossary On
Versions: 1 2 3 4 5 6 7 8 9 10 11 12 13 14 15 16 17 18 19 20 21 22 23 24 25 26 27 28 29 30 31 32 33 34 35 36
000
FTUS41 KOKX 211416 AAB
TAFISP
TAF AMD
KISP 211416Z 2114/2212 23006KT 1SM BR BKN005 OVC010
      TEMPO 2114/2116 3SM BR SCT005 OVC010
     FM211600 25006KT 5SM BR SCT008 BKN015
     FM211800 24008KT 6SM BR BKN020
     FM220000 24003KT 5SM BR BKN012 OVC020
      TEMPO 2203/2206 1SM BR OVC012
     FM220600 VRB02KT 1/2SM FG OVC004=

USA.gov is the U.S. government's official web portal to all federal, state and local government web resources and services.